Time;durP1;ratioP1;P1;durP2;ratioP2;P2;SDS_P1;SDS_P2;PMS_P1;PMS_P2;Temp;Humidity;BMP_temperature;BMP_pressure;BME280_temperature;BME280_humidity;BME280_pressure;Samples;Min_cycle;Max_cycle;Signal;HPM_P1;HPM_P2
2023/03/14 00:00:11;;;;;;;15.52;8.80;;;;;;;;;;1039249;28;20120;-27
2023/03/14 00:00:42;;;;;;;15.45;8.75;;;;;;;;;;1039452;28;20031;-27
2023/03/14 00:01:13;;;;;;;23.27;10.15;;;;;;;;;;1039837;28;20096;-27
2023/03/14 00:01:44;;;;;;;17.20;8.05;;;;;;;;;;1039302;28;20074;-26
2023/03/14 00:02:15;;;;;;;15.57;7.78;;;;;;;;;;1039115;28;20027;-27
2023/03/14 00:02:45;;;;;;;23.27;10.00;;;;;;;;;;1039248;28;20044;-26
2023/03/14 00:03:16;;;;;;;10.75;7.00;;;;;;;;;;1039826;28;20108;-27
2023/03/14 00:03:47;;;;;;;19.90;9.70;;;;;;;;;;1039430;28;20040;-27
2023/03/14 00:04:17;;;;;;;7.63;5.88;;;;;;;;;;1039932;28;20021;-27
2023/03/14 00:04:47;;;;;;;10.63;8.05;;;;;;;;;;1039407;28;20440;-27
2023/03/14 00:05:18;;;;;;;19.85;9.43;;;;;;;;;;1039816;28;20160;-27
2023/03/14 00:05:48;;;;;;;14.23;6.78;;;;;;;;;;1039641;28;20029;-26
2023/03/14 00:06:19;;;;;;;14.25;9.35;;;;;;;;;;1039718;28;20431;-27
2023/03/14 00:06:49;;;;;;;24.02;10.45;;;;;;;;;;1039074;28;20025;-27
2023/03/14 00:07:20;;;;;;;9.95;8.63;;;;;;;;;;1039626;28;20029;-26
2023/03/14 00:07:50;;;;;;;11.82;7.80;;;;;;;;;;1039589;28;20021;-27
2023/03/14 00:08:21;;;;;;;11.65;6.63;;;;;;;;;;1039790;28;20029;-28
2023/03/14 00:08:51;;;;;;;15.20;9.05;;;;;;;;;;1039776;28;20022;-28
2023/03/14 00:09:22;;;;;;;12.70;8.68;;;;;;;;;;1038968;28;20374;-27
2023/03/14 00:09:52;;;;;;;12.05;7.30;;;;;;;;;;1039737;28;20491;-27
2023/03/14 00:10:23;;;;;;;9.82;7.10;;;;;;;;;;1039621;28;20036;-27
2023/03/14 00:10:53;;;;;;;15.23;10.40;;;;;;;;;;1039780;28;20017;-26
2023/03/14 00:11:24;;;;;;;10.48;6.38;;;;;;;;;;1039432;28;20074;-26
2023/03/14 00:11:54;;;;;;;17.58;7.97;;;;;;;;;;1039433;28;20087;-28
2023/03/14 00:12:24;;;;;;;14.82;6.68;;;;;;;;;;1039616;28;20033;-27
2023/03/14 00:12:55;;;;;;;10.07;6.88;;;;;;;;;;1039759;28;20036;-27
2023/03/14 00:13:25;;;;;;;8.90;6.50;;;;;;;;;;1039418;28;20108;-27
2023/03/14 00:13:56;;;;;;;24.48;7.10;;;;;;;;;;1039790;28;20484;-26
2023/03/14 00:14:26;;;;;;;15.27;6.18;;;;;;;;;;1039488;28;20025;-27
2023/03/14 00:14:57;;;;;;;16.17;8.13;;;;;;;;;;1039725;28;20033;-27
2023/03/14 00:15:27;;;;;;;8.38;6.90;;;;;;;;;;1039477;28;20029;-28
2023/03/14 00:16:05;;;;;;;16.48;7.20;;;;;;;;;;1039703;28;20013;-27
2023/03/14 00:16:35;;;;;;;14.27;7.97;;;;;;;;;;1039486;28;20065;-27
2023/03/14 00:17:06;;;;;;;11.35;6.68;;;;;;;;;;1039793;28;20320;-27
2023/03/14 00:17:37;;;;;;;14.43;9.95;;;;;;;;;;1039482;28;20029;-26
2023/03/14 00:18:07;;;;;;;10.88;5.50;;;;;;;;;;1039682;28;20372;-26
2023/03/14 00:18:38;;;;;;;20.90;8.52;;;;;;;;;;1039647;28;20167;-26
2023/03/14 00:19:09;;;;;;;13.13;6.97;;;;;;;;;;1039757;28;20535;-28
2023/03/14 00:19:39;;;;;;;9.82;6.88;;;;;;;;;;1039393;28;20017;-27
2023/03/14 00:20:11;;;;;;;13.35;8.48;;;;;;;;;;1039749;28;20503;-26
2023/03/14 00:20:41;;;;;;;17.65;9.80;;;;;;;;;;1039492;28;20025;-28
2023/03/14 00:21:12;;;;;;;13.02;7.53;;;;;;;;;;1039742;28;20045;-27
2023/03/14 00:21:42;;;;;;;11.73;8.70;;;;;;;;;;1039438;28;20044;-27
2023/03/14 00:22:12;;;;;;;15.13;8.75;;;;;;;;;;1039321;28;20079;-28
2023/03/14 00:22:43;;;;;;;17.23;10.02;;;;;;;;;;1039605;28;20458;-27
2023/03/14 00:23:13;;;;;;;11.02;6.68;;;;;;;;;;1037341;28;20526;-26
2023/03/14 00:23:44;;;;;;;18.83;10.38;;;;;;;;;;1036785;28;20445;-27
2023/03/14 00:24:14;;;;;;;18.15;8.55;;;;;;;;;;1037489;28;20373;-28
2023/03/14 00:24:45;;;;;;;17.70;8.80;;;;;;;;;;1036833;28;20096;-27
2023/03/14 00:25:15;;;;;;;13.75;9.00;;;;;;;;;;1039784;28;20062;-26
2023/03/14 00:25:46;;;;;;;15.60;8.05;;;;;;;;;;1039477;28;20496;-27
2023/03/14 00:26:17;;;;;;;23.75;11.32;;;;;;;;;;1039700;28;20029;-27
2023/03/14 00:26:48;;;;;;;23.02;14.75;;;;;;;;;;1039600;28;20458;-27
2023/03/14 00:27:18;;;;;;;31.55;13.35;;;;;;;;;;1039757;28;20009;-26
2023/03/14 00:27:50;;;;;;;17.38;10.65;;;;;;;;;;1039457;28;20029;-27
2023/03/14 00:28:20;;;;;;;18.67;10.90;;;;;;;;;;1039717;28;20025;-27
2023/03/14 00:28:52;;;;;;;17.80;9.80;;;;;;;;;;1039625;28;20116;-26
2023/03/14 00:29:23;;;;;;;23.27;11.02;;;;;;;;;;1037401;28;20029;-27
2023/03/14 00:29:53;;;;;;;15.90;8.68;;;;;;;;;;1039477;28;20018;-27
2023/03/14 00:30:24;;;;;;;22.17;12.57;;;;;;;;;;1038992;28;20033;-28
2023/03/14 00:30:54;;;;;;;14.90;8.23;;;;;;;;;;1039508;28;20032;-27
2023/03/14 00:31:24;;;;;;;12.20;8.77;;;;;;;;;;1036777;28;20053;-28
2023/03/14 00:31:55;;;;;;;22.05;11.77;;;;;;;;;;1036571;28;20076;-27
2023/03/14 00:32:25;;;;;;;12.57;7.57;;;;;;;;;;1036330;28;20560;-28
2023/03/14 00:32:56;;;;;;;17.50;6.22;;;;;;;;;;1037316;28;20160;-27
2023/03/14 00:33:26;;;;;;;33.05;8.93;;;;;;;;;;1038915;28;20036;-26
2023/03/14 00:33:57;;;;;;;17.70;7.97;;;;;;;;;;1039557;28;20025;-27
2023/03/14 00:34:31;;;;;;;14.88;8.15;;;;;;;;;;1039481;28;20443;-26
2023/03/14 00:35:01;;;;;;;14.05;9.20;;;;;;;;;;1039181;28;20503;-27
2023/03/14 00:35:32;;;;;;;29.08;7.50;;;;;;;;;;1039192;28;20116;-27
2023/03/14 00:36:08;;;;;;;14.32;6.78;;;;;;;;;;1039272;28;20453;-27
2023/03/14 00:36:39;;;;;;;14.55;8.13;;;;;;;;;;1039438;28;20025;-27
2023/03/14 00:37:09;;;;;;;16.55;8.23;;;;;;;;;;1039421;28;20033;-27
2023/03/14 00:37:40;;;;;;;19.95;8.35;;;;;;;;;;1039115;28;20033;-27
2023/03/14 00:38:10;;;;;;;17.23;9.85;;;;;;;;;;1039724;28;20036;-28
2023/03/14 00:38:43;;;;;;;15.98;7.25;;;;;;;;;;1039513;28;20017;-28
2023/03/14 00:39:13;;;;;;;18.73;9.02;;;;;;;;;;1039588;28;20025;-26
2023/03/14 00:39:43;;;;;;;18.48;6.70;;;;;;;;;;1039027;28;20420;-27
2023/03/14 00:40:14;;;;;;;8.60;6.25;;;;;;;;;;1039762;28;20013;-27
2023/03/14 00:40:44;;;;;;;17.75;6.70;;;;;;;;;;1039303;28;20025;-27
2023/03/14 00:41:16;;;;;;;10.20;7.90;;;;;;;;;;1039662;28;20026;-26
2023/03/14 00:41:47;;;;;;;11.88;10.35;;;;;;;;;;1038892;28;20029;-27
2023/03/14 00:42:17;;;;;;;16.02;8.80;;;;;;;;;;1039456;28;20405;-27
2023/03/14 00:42:48;;;;;;;21.30;8.73;;;;;;;;;;1039014;28;20035;-26
2023/03/14 00:43:21;;;;;;;14.13;7.15;;;;;;;;;;1039501;28;20033;-27
2023/03/14 00:43:51;;;;;;;16.58;8.60;;;;;;;;;;1039271;28;20029;-27
2023/03/14 00:44:22;;;;;;;19.58;9.45;;;;;;;;;;1039009;28;20033;-27
2023/03/14 00:44:52;;;;;;;20.27;10.27;;;;;;;;;;1039557;28;20465;-27
2023/03/14 00:45:23;;;;;;;16.02;10.30;;;;;;;;;;1038955;28;20029;-26
2023/03/14 00:45:54;;;;;;;20.83;10.70;;;;;;;;;;1039589;28;20021;-27
2023/03/14 00:46:24;;;;;;;13.00;7.95;;;;;;;;;;1039576;28;20451;-27
2023/03/14 00:46:55;;;;;;;25.98;10.40;;;;;;;;;;1039764;28;20030;-27
2023/03/14 00:47:25;;;;;;;16.98;10.10;;;;;;;;;;1039046;28;20043;-27
2023/03/14 00:47:55;;;;;;;22.02;8.38;;;;;;;;;;1039504;28;20029;-27
2023/03/14 00:48:26;;;;;;;19.73;10.70;;;;;;;;;;1039430;28;20049;-27
2023/03/14 00:48:57;;;;;;;11.98;8.98;;;;;;;;;;1039662;28;20037;-27
2023/03/14 00:49:27;;;;;;;13.20;7.45;;;;;;;;;;1039200;28;20024;-27
2023/03/14 00:49:58;;;;;;;24.23;8.40;;;;;;;;;;1039587;28;20112;-27
2023/03/14 00:50:28;;;;;;;20.25;11.00;;;;;;;;;;1039437;28;20022;-27
2023/03/14 00:50:59;;;;;;;18.00;10.98;;;;;;;;;;1039773;28;20025;-26
2023/03/14 00:51:29;;;;;;;18.70;10.23;;;;;;;;;;1039085;28;20526;-27
2023/03/14 00:51:59;;;;;;;15.13;8.05;;;;;;;;;;1039251;28;20453;-26
2023/03/14 00:52:30;;;;;;;18.23;8.88;;;;;;;;;;1039145;28;20167;-27
2023/03/14 00:53:00;;;;;;;16.52;8.45;;;;;;;;;;1038939;28;20022;-26
2023/03/14 00:53:31;;;;;;;18.23;10.60;;;;;;;;;;1039069;28;20033;-27
2023/03/14 00:54:01;;;;;;;20.15;11.57;;;;;;;;;;1039648;28;20075;-26
2023/03/14 00:54:32;;;;;;;25.27;11.60;;;;;;;;;;1039171;28;20388;-28
2023/03/14 00:55:03;;;;;;;25.17;10.60;;;;;;;;;;1039445;28;20025;-27
2023/03/14 00:55:37;;;;;;;15.75;10.65;;;;;;;;;;1039115;28;20385;-26
2023/03/14 00:56:09;;;;;;;22.90;8.77;;;;;;;;;;1039643;28;20032;-27
2023/03/14 00:56:39;;;;;;;25.90;12.13;;;;;;;;;;1039644;28;20029;-26
2023/03/14 00:57:09;;;;;;;26.65;12.75;;;;;;;;;;1039653;28;20473;-26
2023/03/14 00:57:40;;;;;;;30.65;16.10;;;;;;;;;;1039234;28;20029;-27
2023/03/14 00:58:12;;;;;;;29.65;14.60;;;;;;;;;;1040324;28;20075;-26
2023/03/14 00:58:42;;;;;;;29.58;14.50;;;;;;;;;;1039328;28;20393;-27
2023/03/14 00:59:13;;;;;;;28.17;14.18;;;;;;;;;;1039444;28;20049;-27
2023/03/14 00:59:43;;;;;;;35.53;18.15;;;;;;;;;;1039068;28;20021;-27
2023/03/14 01:00:14;;;;;;;34.70;15.63;;;;;;;;;;1039141;28;20021;-27
2023/03/14 01:00:45;;;;;;;39.55;18.45;;;;;;;;;;1039502;28;20025;-27
2023/03/14 01:01:16;;;;;;;33.58;13.40;;;;;;;;;;1039157;28;20107;-26
2023/03/14 01:01:46;;;;;;;49.60;16.15;;;;;;;;;;1038924;28;20033;-27
2023/03/14 01:02:17;;;;;;;23.90;10.98;;;;;;;;;;1039565;28;20029;-26
2023/03/14 01:02:47;;;;;;;11.48;6.22;;;;;;;;;;1039404;28;20519;-28
2023/03/14 01:03:18;;;;;;;15.30;10.85;;;;;;;;;;1039463;28;20025;-26
2023/03/14 01:03:52;;;;;;;10.25;6.07;;;;;;;;;;1039310;28;20036;-27
2023/03/14 01:04:22;;;;;;;13.77;6.07;;;;;;;;;;1038976;28;20018;-26
2023/03/14 01:04:53;;;;;;;13.55;7.28;;;;;;;;;;1039351;28;20025;-27
2023/03/14 01:05:23;;;;;;;10.80;6.75;;;;;;;;;;1039313;28;20025;-28
2023/03/14 01:05:54;;;;;;;19.92;7.95;;;;;;;;;;1039656;28;20025;-27
2023/03/14 01:06:26;;;;;;;37.42;6.22;;;;;;;;;;1039342;28;20033;-27
2023/03/14 01:06:56;;;;;;;13.35;6.03;;;;;;;;;;1039153;28;20065;-27
2023/03/14 01:07:27;;;;;;;18.52;8.00;;;;;;;;;;1039411;28;20029;-27
2023/03/14 01:07:57;;;;;;;16.52;8.05;;;;;;;;;;1039499;28;20087;-27
2023/03/14 01:08:27;;;;;;;14.07;7.90;;;;;;;;;;1039305;28;20420;-27
2023/03/14 01:08:59;;;;;;;13.70;7.50;;;;;;;;;;1039469;28;20163;-27
2023/03/14 01:09:29;;;;;;;10.95;7.22;;;;;;;;;;1039139;28;20067;-28
2023/03/14 01:10:00;;;;;;;19.20;8.77;;;;;;;;;;1038542;28;20071;-27
2023/03/14 01:10:30;;;;;;;17.05;7.00;;;;;;;;;;1037654;28;20032;-27
2023/03/14 01:11:04;;;;;;;13.18;8.35;;;;;;;;;;1038859;28;20021;-27
2023/03/14 01:11:36;;;;;;;12.75;6.45;;;;;;;;;;1038801;28;20072;-27
2023/03/14 01:12:06;;;;;;;11.68;7.13;;;;;;;;;;1038909;28;20057;-27
2023/03/14 01:12:37;;;;;;;39.55;9.93;;;;;;;;;;1038789;28;20473;-28
2023/03/14 01:13:08;;;;;;;14.88;6.53;;;;;;;;;;1038131;28;20044;-27
2023/03/14 01:13:39;;;;;;;10.27;6.93;;;;;;;;;;1038112;28;20052;-26
2023/03/14 01:14:10;;;;;;;19.98;8.10;;;;;;;;;;1038534;28;20080;-27
2023/03/14 01:14:40;;;;;;;27.23;8.10;;;;;;;;;;1038670;28;20030;-27
2023/03/14 01:15:11;;;;;;;7.60;6.60;;;;;;;;;;1038869;28;20021;-28
2023/03/14 01:15:41;;;;;;;21.98;5.88;;;;;;;;;;1038822;28;20033;-26
2023/03/14 01:16:12;;;;;;;13.65;6.68;;;;;;;;;;1039465;28;20026;-27
2023/03/14 01:16:42;;;;;;;18.08;8.45;;;;;;;;;;1037675;28;20029;-26
2023/03/14 01:17:13;;;;;;;29.13;12.13;;;;;;;;;;1039123;28;20443;-27
2023/03/14 01:17:43;;;;;;;17.70;10.02;;;;;;;;;;1038838;28;20022;-27
2023/03/14 01:18:14;;;;;;;11.27;5.95;;;;;;;;;;1039478;28;20116;-27
2023/03/14 01:18:45;;;;;;;30.65;8.77;;;;;;;;;;1039275;28;20095;-27
2023/03/14 01:19:16;;;;;;;14.32;7.07;;;;;;;;;;1038629;28;20117;-28
2023/03/14 01:19:46;;;;;;;11.65;5.95;;;;;;;;;;1039018;28;20028;-27
2023/03/14 01:20:17;;;;;;;13.07;5.88;;;;;;;;;;1038525;28;20037;-27
2023/03/14 01:20:47;;;;;;;10.85;7.40;;;;;;;;;;1038973;28;20029;-27
2023/03/14 01:21:19;;;;;;;14.38;7.55;;;;;;;;;;1038899;28;20037;-28
2023/03/14 01:21:50;;;;;;;16.17;8.05;;;;;;;;;;1038384;28;20116;-28
2023/03/14 01:22:21;;;;;;;14.77;9.52;;;;;;;;;;1039174;28;20079;-27
2023/03/14 01:22:51;;;;;;;14.18;6.70;;;;;;;;;;1039928;28;20025;-27
2023/03/14 01:23:22;;;;;;;17.38;10.20;;;;;;;;;;1039892;28;20033;-27
2023/03/14 01:23:54;;;;;;;13.73;8.93;;;;;;;;;;1039696;28;20029;-27
2023/03/14 01:24:24;;;;;;;17.65;7.90;;;;;;;;;;1039549;28;20025;-28
2023/03/14 01:24:54;;;;;;;14.45;8.80;;;;;;;;;;1036875;28;20386;-27
2023/03/14 01:25:26;;;;;;;14.45;6.60;;;;;;;;;;1039589;28;20025;-27
2023/03/14 01:25:56;;;;;;;13.48;6.13;;;;;;;;;;1039042;28;20030;-27
2023/03/14 01:26:29;;;;;;;16.98;8.48;;;;;;;;;;1038587;28;20140;-26
2023/03/14 01:26:59;;;;;;;9.60;5.97;;;;;;;;;;1039603;28;20034;-27
2023/03/14 01:27:29;;;;;;;13.07;7.22;;;;;;;;;;1039267;28;20017;-26
2023/03/14 01:28:00;;;;;;;20.30;8.73;;;;;;;;;;1039654;28;20025;-27
2023/03/14 01:28:31;;;;;;;12.80;6.63;;;;;;;;;;1039663;28;20064;-27
2023/03/14 01:29:02;;;;;;;15.48;8.48;;;;;;;;;;1039355;28;20362;-27
2023/03/14 01:29:32;;;;;;;13.98;7.60;;;;;;;;;;1036516;28;20032;-27
2023/03/14 01:30:03;;;;;;;17.27;8.45;;;;;;;;;;1036750;28;20022;-26
2023/03/14 01:30:34;;;;;;;21.65;8.98;;;;;;;;;;1036654;28;20035;-26
2023/03/14 01:31:05;;;;;;;13.27;8.25;;;;;;;;;;1035647;28;20021;-25
2023/03/14 01:31:36;;;;;;;19.27;9.07;;;;;;;;;;1039509;28;20143;-26
2023/03/14 01:32:07;;;;;;;8.85;6.82;;;;;;;;;;1038369;28;20028;-27
2023/03/14 01:32:37;;;;;;;11.63;6.93;;;;;;;;;;1038489;28;20030;-28
2023/03/14 01:33:07;;;;;;;13.70;7.68;;;;;;;;;;1039498;28;20029;-27
2023/03/14 01:33:39;;;;;;;20.92;10.57;;;;;;;;;;1038812;28;20033;-26
2023/03/14 01:34:10;;;;;;;17.27;8.65;;;;;;;;;;1035016;28;20552;-27
2023/03/14 01:34:41;;;;;;;9.32;6.18;;;;;;;;;;1034277;28;20033;-27
2023/03/14 01:35:11;;;;;;;19.13;9.43;;;;;;;;;;1037098;28;20029;-26
2023/03/14 01:35:42;;;;;;;27.20;10.48;;;;;;;;;;1036917;28;20168;-27
2023/03/14 01:36:13;;;;;;;12.73;7.80;;;;;;;;;;1038311;28;20025;-27
2023/03/14 01:36:43;;;;;;;24.23;9.10;;;;;;;;;;1039963;28;20135;-27
2023/03/14 01:37:14;;;;;;;11.93;5.93;;;;;;;;;;1039159;28;20477;-27
2023/03/14 01:37:44;;;;;;;14.82;7.05;;;;;;;;;;1037202;28;20037;-27
2023/03/14 01:38:15;;;;;;;21.85;9.15;;;;;;;;;;1037219;28;20045;-27
2023/03/14 01:38:45;;;;;;;17.30;9.02;;;;;;;;;;1038183;28;20385;-27
2023/03/14 01:39:18;;;;;;;10.07;6.07;;;;;;;;;;1039083;28;20079;-27
2023/03/14 01:39:50;;;;;;;16.92;8.60;;;;;;;;;;1040338;28;20393;-26
2023/03/14 01:40:21;;;;;;;21.67;8.55;;;;;;;;;;1040435;28;20038;-27
2023/03/14 01:40:51;;;;;;;14.90;9.35;;;;;;;;;;1039978;28;20447;-25
2023/03/14 01:41:23;;;;;;;24.67;8.95;;;;;;;;;;1039638;28;20107;-26
2023/03/14 01:41:53;;;;;;;10.32;7.22;;;;;;;;;;1038969;28;20075;-27
2023/03/14 01:42:24;;;;;;;10.32;6.75;;;;;;;;;;1038845;28;20167;-27
2023/03/14 01:42:56;;;;;;;12.95;6.82;;;;;;;;;;1038208;28;20042;-26
2023/03/14 01:43:26;;;;;;;20.85;8.27;;;;;;;;;;1037359;28;20060;-27
2023/03/14 01:43:57;;;;;;;16.35;8.18;;;;;;;;;;1039108;28;20385;-27
2023/03/14 01:44:27;;;;;;;14.98;6.55;;;;;;;;;;1035551;28;20033;-27
2023/03/14 01:44:59;;;;;;;13.80;6.00;;;;;;;;;;1037278;28;20029;-27
2023/03/14 01:45:48;;;;;;;15.50;7.05;;;;;;;;;;1037152;28;20524;-26
2023/03/14 01:46:27;;;;;;;8.77;6.80;;;;;;;;;;1036904;28;20499;-26
2023/03/14 01:46:58;;;;;;;13.52;7.18;;;;;;;;;;1039554;28;20025;-26
2023/03/14 01:47:29;;;;;;;19.90;8.32;;;;;;;;;;1038495;28;20052;-26
2023/03/14 01:47:59;;;;;;;15.93;6.85;;;;;;;;;;1038164;28;20057;-27
2023/03/14 01:48:42;;;;;;;13.65;6.47;;;;;;;;;;1038789;28;20369;-27
2023/03/14 01:49:15;;;;;;;18.95;8.32;;;;;;;;;;1039027;28;20392;-26
2023/03/14 01:49:57;;;;;;;19.05;11.13;;;;;;;;;;1038830;28;20381;-27
2023/03/14 01:50:30;;;;;;;19.52;11.00;;;;;;;;;;1037894;28;20021;-27
2023/03/14 01:51:02;;;;;;;15.63;7.65;;;;;;;;;;1038879;28;20496;-26
2023/03/14 01:51:48;;;;;;;11.52;6.72;;;;;;;;;;1038805;28;20029;-26
2023/03/14 01:52:21;;;;;;;13.18;5.03;;;;;;;;;;1039289;28;21622;-26
2023/03/14 01:52:52;;;;;;;14.57;8.70;;;;;;;;;;1037645;28;20499;-27
2023/03/14 01:53:23;;;;;;;18.83;9.68;;;;;;;;;;1039177;28;20032;-26
2023/03/14 01:53:55;;;;;;;31.35;8.13;;;;;;;;;;1039252;28;20040;-27
2023/03/14 01:54:28;;;;;;;21.92;9.55;;;;;;;;;;1038600;28;20030;-27
2023/03/14 01:55:04;;;;;;;15.27;7.82;;;;;;;;;;1039400;28;20453;-26
2023/03/14 01:55:36;;;;;;;15.38;8.50;;;;;;;;;;1033090;28;20041;-27
2023/03/14 01:56:07;;;;;;;16.40;8.50;;;;;;;;;;1030160;28;20030;-26
2023/03/14 01:56:39;;;;;;;22.40;6.82;;;;;;;;;;1030315;28;20450;-25
2023/03/14 01:57:09;;;;;;;21.17;10.63;;;;;;;;;;1033142;28;20073;-26
2023/03/14 01:57:43;;;;;;;11.38;7.63;;;;;;;;;;1036695;28;20032;-25
2023/03/14 01:58:15;;;;;;;16.00;8.30;;;;;;;;;;1039170;28;20380;-27
2023/03/14 01:58:47;;;;;;;17.10;9.82;;;;;;;;;;1039102;28;20037;-27
2023/03/14 01:59:18;;;;;;;34.72;15.48;;;;;;;;;;1039316;28;20079;-27
2023/03/14 01:59:56;;;;;;;17.58;9.82;;;;;;;;;;1039275;28;20056;-27
2023/03/14 02:00:26;;;;;;;15.38;9.88;;;;;;;;;;1039225;28;20443;-28
2023/03/14 02:00:57;;;;;;;35.47;11.55;;;;;;;;;;1038552;28;20116;-27
2023/03/14 02:01:28;;;;;;;27.65;12.02;;;;;;;;;;1038782;28;20059;-27
2023/03/14 02:01:59;;;;;;;20.92;11.05;;;;;;;;;;1039664;28;20021;-27
2023/03/14 02:02:30;;;;;;;18.90;8.60;;;;;;;;;;1038834;28;20158;-27
2023/03/14 02:03:10;;;;;;;23.98;10.43;;;;;;;;;;1037865;28;20124;-27
2023/03/14 02:03:45;;;;;;;19.25;7.38;;;;;;;;;;1036661;28;20472;-27
2023/03/14 02:04:17;;;;;;;21.27;9.73;;;;;;;;;;1038209;28;20604;-27
2023/03/14 02:04:48;;;;;;;17.42;7.68;;;;;;;;;;1039087;28;20409;-28
2023/03/14 02:05:21;;;;;;;17.50;10.40;;;;;;;;;;1039665;28;20053;-27
2023/03/14 02:05:55;;;;;;;18.88;9.25;;;;;;;;;;1034338;28;20033;-27
2023/03/14 02:06:44;;;;;;;17.52;11.45;;;;;;;;;;1033955;28;20503;-28
2023/03/14 02:07:19;;;;;;;26.67;7.32;;;;;;;;;;1036895;28;20025;-27
2023/03/14 02:07:52;;;;;;;27.35;9.57;;;;;;;;;;1038254;28;20819;-27
2023/03/14 02:08:24;;;;;;;19.20;10.68;;;;;;;;;;1038305;28;20025;-27
2023/03/14 02:08:55;;;;;;;21.35;9.60;;;;;;;;;;1039111;28;20021;-28
2023/03/14 02:09:25;;;;;;;22.10;9.48;;;;;;;;;;1038287;28;20416;-27
2023/03/14 02:09:57;;;;;;;24.35;11.70;;;;;;;;;;1039065;28;20029;-28
2023/03/14 02:10:31;;;;;;;15.45;10.75;;;;;;;;;;1037754;28;20033;-27
2023/03/14 02:11:02;;;;;;;17.15;9.95;;;;;;;;;;1039327;28;20036;-27
2023/03/14 02:11:33;;;;;;;37.15;15.65;;;;;;;;;;1037611;28;20033;-27
2023/03/14 02:12:04;;;;;;;30.75;15.73;;;;;;;;;;1033559;28;20073;-26
2023/03/14 02:12:35;;;;;;;19.50;11.80;;;;;;;;;;1034477;28;20469;-27
2023/03/14 02:13:05;;;;;;;30.98;14.50;;;;;;;;;;1037788;28;20466;-27
2023/03/14 02:13:36;;;;;;;28.02;14.40;;;;;;;;;;1030882;28;20030;-27
2023/03/14 02:14:07;;;;;;;31.98;14.57;;;;;;;;;;1033619;28;20216;-27
2023/03/14 02:14:38;;;;;;;34.80;18.98;;;;;;;;;;1036521;28;20041;-27
2023/03/14 02:15:09;;;;;;;27.08;12.98;;;;;;;;;;1037856;28;20155;-28
2023/03/14 02:15:39;;;;;;;22.33;15.07;;;;;;;;;;1035562;28;20508;-26
2023/03/14 02:16:10;;;;;;;35.10;15.50;;;;;;;;;;1035902;28;20405;-27
2023/03/14 02:16:41;;;;;;;37.42;18.35;;;;;;;;;;1036892;28;20123;-27
2023/03/14 02:17:11;;;;;;;37.72;16.30;;;;;;;;;;1037615;28;20440;-27
2023/03/14 02:17:43;;;;;;;20.17;12.50;;;;;;;;;;1037456;28;20029;-26
2023/03/14 02:18:16;;;;;;;24.88;12.98;;;;;;;;;;1035696;28;20436;-26
2023/03/14 02:18:46;;;;;;;37.05;18.88;;;;;;;;;;1035728;28;20045;-27
2023/03/14 02:19:22;;;;;;;37.22;16.63;;;;;;;;;;1035614;28;20036;-27
2023/03/14 02:20:12;;;;;;;34.38;14.73;;;;;;;;;;1030481;28;20196;-27
2023/03/14 02:20:53;;;;;;;23.15;9.18;;;;;;;;;;1038165;28;20315;-27
2023/03/14 02:21:34;;;;;;;28.95;12.07;;;;;;;;;;1038367;28;20025;-27
2023/03/14 02:22:08;;;;;;;26.27;11.52;;;;;;;;;;1037881;28;20018;-28
2023/03/14 02:22:40;;;;;;;23.92;12.13;;;;;;;;;;1039648;28;20373;-27
2023/03/14 02:23:12;;;;;;;20.92;12.52;;;;;;;;;;1038715;28;20033;-26
2023/03/14 02:23:57;;;;;;;20.08;12.13;;;;;;;;;;1038122;28;20167;-28
2023/03/14 02:24:33;;;;;;;20.98;11.18;;;;;;;;;;1038275;28;20030;-27
2023/03/14 02:25:04;;;;;;;28.98;11.80;;;;;;;;;;1038278;28;20068;-27
2023/03/14 02:25:40;;;;;;;19.35;9.35;;;;;;;;;;1038733;28;20031;-28
2023/03/14 02:26:40;;;;;;;12.48;8.05;;;;;;;;;;1038457;28;20033;-27
2023/03/14 02:27:15;;;;;;;15.13;9.13;;;;;;;;;;1028933;28;20026;-27
2023/03/14 02:27:46;;;;;;;20.65;9.60;;;;;;;;;;1038674;28;20457;-28
2023/03/14 02:28:17;;;;;;;11.77;7.53;;;;;;;;;;1038485;28;20053;-27
2023/03/14 02:28:49;;;;;;;18.73;8.48;;;;;;;;;;1038640;28;20105;-27
2023/03/14 02:29:20;;;;;;;19.67;9.55;;;;;;;;;;1038181;28;20025;-28
2023/03/14 02:29:59;;;;;;;18.15;8.25;;;;;;;;;;1039284;28;20112;-27
2023/03/14 02:30:30;;;;;;;20.30;9.40;;;;;;;;;;1035801;28;20100;-28
2023/03/14 02:31:01;;;;;;;18.60;8.57;;;;;;;;;;1034803;28;20026;-28
2023/03/14 02:31:32;;;;;;;19.50;9.52;;;;;;;;;;1035470;28;20075;-26
2023/03/14 02:32:02;;;;;;;37.53;10.07;;;;;;;;;;1035838;28;20030;-27
2023/03/14 02:32:34;;;;;;;18.27;9.20;;;;;;;;;;1036600;28;20121;-27
2023/03/14 02:33:08;;;;;;;16.88;9.25;;;;;;;;;;1035174;28;20076;-28
2023/03/14 02:33:39;;;;;;;20.10;10.65;;;;;;;;;;1037291;28;20017;-29
2023/03/14 02:34:09;;;;;;;14.10;7.45;;;;;;;;;;1035754;28;20025;-28
2023/03/14 02:34:42;;;;;;;16.88;8.05;;;;;;;;;;1036527;28;20175;-28
2023/03/14 02:35:15;;;;;;;16.63;8.52;;;;;;;;;;1036487;28;20021;-28
2023/03/14 02:35:46;;;;;;;18.02;9.10;;;;;;;;;;1037343;28;20032;-27
2023/03/14 02:36:18;;;;;;;20.60;9.50;;;;;;;;;;1036282;28;20036;-28
2023/03/14 02:36:49;;;;;;;23.05;9.02;;;;;;;;;;1032255;28;20476;-28
2023/03/14 02:37:22;;;;;;;18.38;9.30;;;;;;;;;;1034691;28;20111;-27
2023/03/14 02:37:56;;;;;;;18.55;9.85;;;;;;;;;;1033193;28;20029;-28
2023/03/14 02:38:27;;;;;;;26.70;13.18;;;;;;;;;;1032120;28;20464;-27
2023/03/14 02:39:03;;;;;;;18.40;9.80;;;;;;;;;;1032561;28;20062;-27
2023/03/14 02:39:44;;;;;;;36.55;11.85;;;;;;;;;;1031801;28;20041;-27
2023/03/14 02:40:15;;;;;;;34.92;11.85;;;;;;;;;;1030302;28;20038;-28
2023/03/14 02:40:45;;;;;;;22.02;11.10;;;;;;;;;;1031147;28;20585;-28
2023/03/14 02:41:16;;;;;;;64.10;13.27;;;;;;;;;;1031372;28;20030;-28
2023/03/14 02:41:48;;;;;;;51.15;12.60;;;;;;;;;;1028604;28;20045;-28
2023/03/14 02:42:19;;;;;;;24.30;11.50;;;;;;;;;;1035139;28;20061;-28
2023/03/14 02:42:50;;;;;;;17.73;11.50;;;;;;;;;;1033702;28;20493;-29
2023/03/14 02:43:20;;;;;;;32.90;12.63;;;;;;;;;;1033260;28;20034;-29
2023/03/14 02:43:50;;;;;;;31.40;12.68;;;;;;;;;;1038598;28;20025;-29
2023/03/14 02:44:21;;;;;;;39.58;12.98;;;;;;;;;;1037481;28;20504;-28
2023/03/14 02:45:01;;;;;;;18.73;8.52;;;;;;;;;;1037336;28;20143;-28
2023/03/14 02:45:31;;;;;;;27.20;11.05;;;;;;;;;;1036629;28;20487;-29
2023/03/14 02:46:03;;;;;;;26.25;10.73;;;;;;;;;;1037935;28;20037;-27
2023/03/14 02:46:33;;;;;;;26.23;8.98;;;;;;;;;;1035112;28;20124;-28
2023/03/14 02:47:04;;;;;;;22.88;10.95;;;;;;;;;;1035585;28;20397;-28
2023/03/14 02:47:37;;;;;;;27.55;11.38;;;;;;;;;;1035840;28;20030;-28
2023/03/14 02:48:10;;;;;;;30.25;10.88;;;;;;;;;;1035668;28;20026;-29
2023/03/14 02:49:02;;;;;;;26.10;10.52;;;;;;;;;;1038472;28;20036;-28
2023/03/14 02:49:35;;;;;;;21.35;8.70;;;;;;;;;;1037103;28;20485;-27
2023/03/14 02:50:09;;;;;;;12.38;7.32;;;;;;;;;;1040300;28;20030;-29
2023/03/14 02:50:40;;;;;;;24.80;7.57;;;;;;;;;;1037162;28;20106;-27
2023/03/14 02:51:11;;;;;;;9.90;6.30;;;;;;;;;;1036867;28;20083;-28
2023/03/14 02:51:43;;;;;;;12.63;6.45;;;;;;;;;;1031994;28;20037;-29
2023/03/14 02:52:14;;;;;;;20.83;8.40;;;;;;;;;;1032257;28;20033;-28
2023/03/14 02:52:47;;;;;;;17.10;7.28;;;;;;;;;;1033654;28;20045;-27
2023/03/14 02:53:27;;;;;;;8.27;5.15;;;;;;;;;;1035067;28;20493;-28
2023/03/14 02:54:00;;;;;;;9.20;4.90;;;;;;;;;;1035152;28;20609;-28
2023/03/14 02:54:31;;;;;;;8.80;4.90;;;;;;;;;;1035830;28;20030;-28
2023/03/14 02:55:04;;;;;;;18.70;5.35;;;;;;;;;;1031904;28;20018;-28
2023/03/14 02:55:36;;;;;;;21.92;7.00;;;;;;;;;;1034452;28;20431;-29
2023/03/14 02:56:09;;;;;;;7.40;4.65;;;;;;;;;;1036062;28;20033;-28
2023/03/14 02:56:41;;;;;;;37.20;5.10;;;;;;;;;;1034823;28;20136;-29
2023/03/14 02:57:11;;;;;;;5.28;4.22;;;;;;;;;;1036745;28;20021;-29
2023/03/14 02:57:42;;;;;;;9.50;5.70;;;;;;;;;;1036429;28;21243;-28
2023/03/14 02:58:13;;;;;;;12.73;6.80;;;;;;;;;;1037781;28;20029;-27
2023/03/14 02:58:44;;;;;;;11.13;4.85;;;;;;;;;;1035082;28;20357;-28
2023/03/14 02:59:18;;;;;;;15.02;5.68;;;;;;;;;;1037081;28;20064;-28
2023/03/14 02:59:51;;;;;;;9.07;5.82;;;;;;;;;;1033040;28;20038;-29
2023/03/14 03:00:24;;;;;;;25.30;7.35;;;;;;;;;;1032593;28;20524;-29
2023/03/14 03:00:59;;;;;;;17.52;5.82;;;;;;;;;;1028160;28;20018;-27
2023/03/14 03:01:32;;;;;;;10.05;5.45;;;;;;;;;;1022880;28;20506;-26
2023/03/14 03:02:04;;;;;;;15.85;5.43;;;;;;;;;;1023726;28;20445;-28
2023/03/14 03:02:45;;;;;;;9.02;5.15;;;;;;;;;;1027489;28;20034;-27
2023/03/14 03:03:21;;;;;;;15.48;4.30;;;;;;;;;;1032832;28;20517;-27
2023/03/14 03:04:21;;;;;;;21.25;5.80;;;;;;;;;;1037111;28;20052;-28
2023/03/14 03:05:34;;;;;;;8.93;5.00;;;;;;;;;;1025622;28;20379;-27
2023/03/14 03:06:08;;;;;;;9.77;5.72;;;;;;;;;;1022376;28;20106;-27
2023/03/14 03:06:55;;;;;;;14.50;6.68;;;;;;;;;;1029233;28;20077;-27
2023/03/14 03:07:42;;;;;;;19.52;5.53;;;;;;;;;;1024058;28;20031;-26
2023/03/14 03:08:40;;;;;;;12.73;3.85;;;;;;;;;;1030114;28;20018;-28
2023/03/14 03:09:16;;;;;;;18.23;5.68;;;;;;;;;;1023058;28;20075;-27
2023/03/14 03:10:01;;;;;;;18.65;9.40;;;;;;;;;;1018462;29;20031;-27